createdAt,value
2018-09-29T00:00:01.044Z,45.08
2018-09-29T00:01:01.514Z,45.08
2018-09-29T00:02:01.986Z,45.07
2018-09-29T00:03:02.473Z,45.07
2018-09-29T00:04:02.929Z,45.09
2018-09-29T00:05:03.399Z,45.09
2018-09-29T00:06:03.873Z,45.11
2018-09-29T00:07:04.343Z,45.16
2018-09-29T00:08:04.812Z,45.25
2018-09-29T00:09:05.284Z,45.33
2018-09-29T00:10:05.768Z,45.43
2018-09-29T00:11:06.265Z,45.52
2018-09-29T00:12:06.694Z,45.59
2018-09-29T00:13:07.164Z,45.63
2018-09-29T00:14:07.634Z,45.66
2018-09-29T00:15:08.106Z,45.65
2018-09-29T00:16:08.574Z,45.67
2018-09-29T00:17:09.050Z,45.65
2018-09-29T00:18:09.517Z,45.63
2018-09-29T00:19:09.987Z,45.57
2018-09-29T00:20:10.456Z,45.54
2018-09-29T00:21:10.927Z,45.47
2018-09-29T00:22:11.396Z,45.44
2018-09-29T00:23:11.869Z,45.38
2018-09-29T00:24:12.339Z,45.31
2018-09-29T00:25:12.807Z,45.25
2018-09-29T00:26:13.278Z,45.20
2018-09-29T00:27:13.750Z,45.14
2018-09-29T00:28:14.219Z,45.11
2018-09-29T00:29:14.690Z,45.07
2018-09-29T00:30:15.162Z,45.02
2018-09-29T00:31:15.635Z,45.00
2018-09-29T00:32:16.106Z,44.99
2018-09-29T00:33:16.577Z,44.98
2018-09-29T00:34:17.052Z,44.98
2018-09-29T00:35:17.523Z,45.01
2018-09-29T00:36:17.994Z,45.04
2018-09-29T00:37:18.464Z,45.04
2018-09-29T00:38:18.938Z,45.08
2018-09-29T00:39:19.410Z,45.08
2018-09-29T00:40:19.884Z,45.09
2018-09-29T00:41:20.356Z,45.09
2018-09-29T00:42:20.830Z,45.04
2018-09-29T00:43:21.305Z,45.00
2018-09-29T00:44:21.778Z,45.01
2018-09-29T00:45:22.252Z,45.02
2018-09-29T00:46:22.725Z,45.03
2018-09-29T00:47:23.199Z,45.02
2018-09-29T00:48:23.672Z,45.04
2018-09-29T00:49:24.148Z,45.11
2018-09-29T00:50:24.622Z,45.15
2018-09-29T00:51:25.098Z,45.18
2018-09-29T00:52:25.568Z,45.22
2018-09-29T00:53:26.042Z,45.25
2018-09-29T00:54:26.516Z,45.33
2018-09-29T00:55:26.991Z,45.40
2018-09-29T00:56:27.463Z,45.45
2018-09-29T00:57:27.936Z,45.49
2018-09-29T00:58:28.415Z,45.55
2018-09-29T00:59:28.884Z,45.58
2018-09-29T01:00:29.359Z,45.64
2018-09-29T01:01:29.834Z,45.69
2018-09-29T01:02:30.307Z,45.74
2018-09-29T01:03:30.777Z,45.78
2018-09-29T01:04:31.251Z,45.82
2018-09-29T01:05:31.722Z,45.87
2018-09-29T01:06:32.193Z,45.92
2018-09-29T01:07:32.667Z,45.94
2018-09-29T01:08:33.139Z,45.95
2018-09-29T01:09:33.611Z,45.96
2018-09-29T01:10:34.083Z,45.98
2018-09-29T01:11:34.556Z,45.94
2018-09-29T01:12:35.026Z,45.93
2018-09-29T01:13:35.496Z,45.93
2018-09-29T01:14:35.969Z,45.96
2018-09-29T01:15:36.439Z,46.00
2018-09-29T01:16:36.910Z,46.09
2018-09-29T01:17:37.378Z,46.14
2018-09-29T01:18:37.849Z,46.19
2018-09-29T01:19:38.320Z,46.22
2018-09-29T01:20:38.791Z,46.25
2018-09-29T01:21:39.264Z,46.28
2018-09-29T01:22:39.732Z,46.29
2018-09-29T01:23:40.201Z,46.28
2018-09-29T01:24:40.674Z,46.26
2018-09-29T01:25:41.142Z,46.21
2018-09-29T01:26:41.612Z,46.14
2018-09-29T01:27:42.084Z,46.10
2018-09-29T01:28:42.570Z,46.02
2018-09-29T01:29:43.023Z,45.97
2018-09-29T01:30:43.492Z,45.93
2018-09-29T01:31:43.972Z,45.88
2018-09-29T01:32:44.432Z,45.85
2018-09-29T01:33:44.904Z,45.79
2018-09-29T01:34:45.374Z,45.74
2018-09-29T01:35:45.846Z,45.69
2018-09-29T01:36:46.317Z,45.63
2018-09-29T01:37:46.789Z,45.59
2018-09-29T01:38:47.257Z,45.54
2018-09-29T01:39:50.765Z,45.52
2018-09-29T01:40:48.200Z,45.50
2018-09-29T01:41:48.675Z,45.48
2018-09-29T01:42:49.143Z,45.46
2018-09-29T01:43:49.615Z,45.42
2018-09-29T01:44:50.093Z,45.41
2018-09-29T01:45:50.558Z,45.39
2018-09-29T01:46:51.031Z,45.38
2018-09-29T01:47:51.509Z,45.37
2018-09-29T01:48:51.976Z,45.35
2018-09-29T01:49:52.449Z,45.38
2018-09-29T01:50:52.924Z,45.34
2018-09-29T01:51:53.394Z,45.34
2018-09-29T01:52:53.868Z,45.34
2018-09-29T01:53:54.341Z,45.31
2018-09-29T01:54:54.815Z,45.28
2018-09-29T01:55:55.288Z,45.30
2018-09-29T01:56:55.768Z,45.34
2018-09-29T01:57:56.237Z,45.37
2018-09-29T01:58:56.709Z,45.38
2018-09-29T01:59:57.184Z,45.40
2018-09-29T02:00:57.656Z,45.43
2018-09-29T02:01:58.130Z,45.46
2018-09-29T02:02:58.604Z,45.46
2018-09-29T02:03:59.078Z,45.49
2018-09-29T02:04:59.552Z,45.54
2018-09-29T02:06:00.026Z,45.61
2018-09-29T02:07:00.499Z,45.67
2018-09-29T02:08:01.008Z,45.74
2018-09-29T02:09:01.447Z,45.79
2018-09-29T02:10:01.921Z,45.84
2018-09-29T02:11:02.395Z,45.90
2018-09-29T02:12:02.870Z,45.96
2018-09-29T02:13:03.339Z,46.01
2018-09-29T02:14:03.813Z,46.05
2018-09-29T02:15:04.284Z,46.10
2018-09-29T02:16:04.758Z,46.14
2018-09-29T02:17:05.230Z,46.20
2018-09-29T02:18:05.702Z,46.26
2018-09-29T02:19:06.175Z,46.27
2018-09-29T02:20:06.646Z,46.27
2018-09-29T02:21:07.120Z,46.29
2018-09-29T02:22:07.588Z,46.29
2018-09-29T02:23:08.060Z,46.29
2018-09-29T02:24:08.534Z,46.34
2018-09-29T02:25:09.002Z,46.39
2018-09-29T02:26:09.472Z,46.51
2018-09-29T02:27:09.945Z,46.56
2018-09-29T02:28:10.413Z,46.62
2018-09-29T02:29:10.889Z,46.66
2018-09-29T02:30:11.355Z,46.64
2018-09-29T02:31:11.825Z,46.64
2018-09-29T02:32:12.296Z,46.63
2018-09-29T02:33:12.764Z,46.63
2018-09-29T02:34:13.238Z,46.60
2018-09-29T02:35:13.705Z,46.58
2018-09-29T02:36:14.176Z,46.54
2018-09-29T02:37:14.645Z,46.51
2018-09-29T02:38:15.116Z,46.44
2018-09-29T02:39:15.585Z,46.39
2018-09-29T02:40:16.055Z,46.34
2018-09-29T02:41:16.527Z,46.28
2018-09-29T02:42:16.997Z,46.21
2018-09-29T02:43:17.466Z,46.16
2018-09-29T02:44:17.938Z,46.09
2018-09-29T02:45:18.408Z,45.99
2018-09-29T02:46:18.877Z,45.94
2018-09-29T02:47:19.355Z,45.89
2018-09-29T02:48:19.819Z,45.82
2018-09-29T02:49:20.289Z,45.76
2018-09-29T02:50:20.759Z,45.72
2018-09-29T02:51:21.234Z,45.70
2018-09-29T02:52:21.707Z,45.65
2018-09-29T02:53:22.176Z,45.66
2018-09-29T02:54:22.645Z,45.60
2018-09-29T02:55:23.119Z,45.57
2018-09-29T02:56:23.591Z,45.57
2018-09-29T02:57:24.061Z,45.57
2018-09-29T02:58:24.534Z,45.54
2018-09-29T02:59:25.006Z,45.52
2018-09-29T03:00:25.481Z,45.50
2018-09-29T03:01:25.950Z,45.49
2018-09-29T03:02:26.426Z,45.47
2018-09-29T03:03:26.897Z,45.45
2018-09-29T03:04:27.373Z,45.45
2018-09-29T03:05:27.841Z,45.42
2018-09-29T03:06:28.317Z,45.39
2018-09-29T03:07:28.792Z,45.40
2018-09-29T03:08:29.265Z,45.41
2018-09-29T03:09:29.736Z,45.43
2018-09-29T03:10:30.210Z,45.41
2018-09-29T03:11:30.685Z,45.42
2018-09-29T03:12:31.161Z,45.49
2018-09-29T03:13:31.637Z,45.50
2018-09-29T03:14:32.107Z,45.53
2018-09-29T03:15:32.580Z,45.58
2018-09-29T03:16:33.054Z,45.64
2018-09-29T03:17:33.526Z,45.72
2018-09-29T03:18:34.003Z,45.80
2018-09-29T03:19:34.474Z,45.91
2018-09-29T03:20:34.950Z,45.99
2018-09-29T03:21:35.422Z,46.05
2018-09-29T03:22:35.901Z,46.11
2018-09-29T03:23:36.367Z,46.17
2018-09-29T03:24:36.840Z,46.24
2018-09-29T03:25:37.311Z,46.29
2018-09-29T03:26:37.794Z,46.37
2018-09-29T03:27:38.259Z,46.44
2018-09-29T03:28:38.734Z,46.50
2018-09-29T03:29:39.201Z,46.56
2018-09-29T03:30:39.675Z,46.60
2018-09-29T03:31:40.205Z,46.61
2018-09-29T03:32:40.619Z,46.63
2018-09-29T03:33:41.087Z,46.66
2018-09-29T03:34:41.558Z,46.73
2018-09-29T03:35:42.032Z,46.83
2018-09-29T03:36:42.501Z,46.93
2018-09-29T03:37:42.986Z,47.01
2018-09-29T03:38:43.444Z,47.08
2018-09-29T03:39:43.911Z,47.15
2018-09-29T03:40:44.382Z,47.16
2018-09-29T03:41:44.852Z,47.15
2018-09-29T03:42:45.322Z,47.11
2018-09-29T03:43:45.792Z,47.09
2018-09-29T03:44:46.311Z,47.03
2018-09-29T03:45:46.731Z,46.97
2018-09-29T03:46:47.206Z,46.91
2018-09-29T03:47:47.673Z,46.85
2018-09-29T03:48:48.142Z,46.78
2018-09-29T03:49:48.610Z,46.71
2018-09-29T03:50:49.081Z,46.63
2018-09-29T03:51:49.554Z,46.54
2018-09-29T03:52:50.021Z,46.45
2018-09-29T03:53:50.494Z,46.38
2018-09-29T03:54:50.961Z,46.30
2018-09-29T03:55:51.432Z,46.24
2018-09-29T03:56:51.905Z,46.15
2018-09-29T03:57:52.373Z,46.08
2018-09-29T03:58:52.843Z,46.02
2018-09-29T03:59:53.315Z,45.94
2018-09-29T04:00:53.785Z,45.89
2018-09-29T04:01:54.406Z,45.85
2018-09-29T04:02:54.727Z,45.83
2018-09-29T04:03:55.201Z,45.80
2018-09-29T04:04:55.669Z,45.77
2018-09-29T04:05:56.141Z,45.75
2018-09-29T04:06:56.613Z,45.72
2018-09-29T04:07:57.084Z,45.69
2018-09-29T04:08:57.559Z,45.69
2018-09-29T04:09:58.027Z,45.66
2018-09-29T04:10:58.500Z,45.66
2018-09-29T04:11:58.972Z,45.65
2018-09-29T04:12:59.453Z,45.62
2018-09-29T04:13:59.978Z,45.61
2018-09-29T04:15:00.389Z,45.61
2018-09-29T04:16:00.864Z,45.62
2018-09-29T04:17:01.337Z,45.61
2018-09-29T04:18:01.808Z,45.58
2018-09-29T04:19:02.282Z,45.60
2018-09-29T04:20:02.758Z,45.55
2018-09-29T04:21:03.229Z,45.55
2018-09-29T04:22:03.751Z,45.60
2018-09-29T04:23:04.175Z,45.60
2018-09-29T04:24:04.649Z,45.62
2018-09-29T04:25:05.123Z,45.67
2018-09-29T04:26:05.595Z,45.76
2018-09-29T04:27:06.069Z,45.81
2018-09-29T04:28:06.544Z,45.82
2018-09-29T04:29:07.016Z,45.88
2018-09-29T04:30:07.495Z,45.92
2018-09-29T04:31:07.966Z,45.99
2018-09-29T04:32:08.437Z,46.04
2018-09-29T04:33:08.910Z,46.11
2018-09-29T04:34:09.382Z,46.16
2018-09-29T04:35:09.857Z,46.23
2018-09-29T04:36:10.331Z,46.29
2018-09-29T04:37:10.818Z,46.35
2018-09-29T04:38:11.277Z,46.40
2018-09-29T04:39:11.746Z,46.44
2018-09-29T04:40:12.222Z,46.49
2018-09-29T04:41:12.692Z,46.55
2018-09-29T04:42:13.162Z,46.62
2018-09-29T04:43:13.685Z,46.67
2018-09-29T04:44:14.108Z,46.72
2018-09-29T04:45:14.577Z,46.77
2018-09-29T04:46:15.050Z,46.82
2018-09-29T04:47:18.859Z,46.90
2018-09-29T04:48:15.994Z,47.00
2018-09-29T04:49:16.508Z,47.09
2018-09-29T04:50:16.931Z,47.15
2018-09-29T04:51:17.404Z,47.19
2018-09-29T04:52:17.875Z,47.23
2018-09-29T04:53:18.343Z,47.25
2018-09-29T04:54:18.811Z,47.24
2018-09-29T04:55:19.283Z,47.24
2018-09-29T04:56:19.753Z,47.21
2018-09-29T04:57:20.221Z,47.19
2018-09-29T04:58:20.695Z,47.14
2018-09-29T04:59:21.165Z,47.09
2018-09-29T05:00:21.634Z,47.05
2018-09-29T05:01:22.102Z,46.98
2018-09-29T05:02:22.571Z,46.91
2018-09-29T05:03:23.044Z,46.86
2018-09-29T05:04:23.510Z,46.77
2018-09-29T05:05:23.981Z,46.70
2018-09-29T05:06:24.458Z,46.63
2018-09-29T05:07:24.919Z,46.57
2018-09-29T05:08:25.393Z,46.48
2018-09-29T05:09:25.861Z,46.41
2018-09-29T05:10:26.333Z,46.35
2018-09-29T05:11:26.803Z,46.29
2018-09-29T05:12:27.273Z,46.22
2018-09-29T05:13:27.743Z,46.16
2018-09-29T05:14:28.213Z,46.11
2018-09-29T05:15:28.686Z,46.08
2018-09-29T05:16:29.169Z,46.04
2018-09-29T05:17:29.627Z,46.01
2018-09-29T05:18:30.097Z,45.97
2018-09-29T05:19:30.569Z,45.93
2018-09-29T05:20:31.041Z,45.88
2018-09-29T05:21:31.512Z,45.86
2018-09-29T05:22:31.983Z,45.84
2018-09-29T05:23:32.456Z,45.82
2018-09-29T05:24:32.928Z,45.80
2018-09-29T05:25:33.400Z,45.79
2018-09-29T05:26:33.875Z,45.75
2018-09-29T05:27:34.344Z,45.73
2018-09-29T05:28:34.821Z,45.72
2018-09-29T05:29:35.289Z,45.70
2018-09-29T05:30:35.763Z,45.71
2018-09-29T05:31:36.233Z,45.71
2018-09-29T05:32:36.709Z,45.71
2018-09-29T05:33:37.180Z,45.70
2018-09-29T05:34:37.656Z,45.69
2018-09-29T05:35:38.128Z,45.64
2018-09-29T05:36:38.602Z,45.59
2018-09-29T05:37:39.075Z,45.51
2018-09-29T05:38:39.547Z,45.53
2018-09-29T05:39:40.021Z,45.56
2018-09-29T05:40:40.495Z,45.51
2018-09-29T05:41:40.968Z,45.50
2018-09-29T05:42:41.441Z,45.51
2018-09-29T05:43:41.915Z,45.52
2018-09-29T05:44:42.389Z,45.53
2018-09-29T05:45:42.869Z,45.54
2018-09-29T05:46:43.337Z,45.56
2018-09-29T05:47:43.808Z,45.58
2018-09-29T05:48:44.320Z,45.59
2018-09-29T05:49:44.757Z,45.61
2018-09-29T05:50:45.231Z,45.64
2018-09-29T05:51:45.719Z,45.65
2018-09-29T05:52:46.176Z,45.67
2018-09-29T05:53:46.700Z,45.70
2018-09-29T05:54:47.121Z,45.72
2018-09-29T05:55:47.593Z,45.74
2018-09-29T05:56:48.064Z,45.76
2018-09-29T05:57:48.536Z,45.77
2018-09-29T05:58:49.054Z,45.78
2018-09-29T05:59:49.481Z,45.79
2018-09-29T06:00:49.951Z,45.78
2018-09-29T06:01:50.424Z,45.78
2018-09-29T06:02:50.895Z,45.79
2018-09-29T06:03:51.364Z,45.84
2018-09-29T06:05:52.354Z,45.89
2018-09-29T06:06:52.777Z,45.90
2018-09-29T06:07:53.248Z,45.88
2018-09-29T06:08:53.718Z,45.84
2018-09-29T06:09:54.187Z,45.79
2018-09-29T06:10:54.656Z,45.72
2018-09-29T06:11:55.128Z,45.72
2018-09-29T06:12:55.605Z,45.67
2018-09-29T06:13:56.068Z,45.57
2018-09-29T06:14:56.539Z,45.47
2018-09-29T06:15:57.008Z,45.37
2018-09-29T06:16:57.481Z,45.26
2018-09-29T06:17:57.950Z,45.18
2018-09-29T06:18:58.417Z,45.06
2018-09-29T06:19:58.890Z,44.94
2018-09-29T06:20:59.418Z,44.87
2018-09-29T06:21:59.832Z,44.79
2018-09-29T06:23:00.299Z,44.69
2018-09-29T06:24:00.771Z,44.63
2018-09-29T06:25:01.240Z,44.55
2018-09-29T06:26:01.711Z,44.51
2018-09-29T06:27:02.183Z,44.47
2018-09-29T06:28:02.759Z,44.40
2018-09-29T06:29:03.123Z,44.35
2018-09-29T06:30:03.598Z,44.27
2018-09-29T06:31:04.067Z,44.22
2018-09-29T06:32:04.541Z,44.20
2018-09-29T06:33:05.012Z,44.19
2018-09-29T06:34:05.531Z,44.15
2018-09-29T06:35:05.952Z,44.12
2018-09-29T06:36:06.426Z,44.09
2018-09-29T06:37:06.901Z,44.05
2018-09-29T06:38:07.373Z,44.03
2018-09-29T06:39:07.846Z,44.00
2018-09-29T06:40:08.316Z,43.98
2018-09-29T06:41:08.793Z,43.95
2018-09-29T06:42:09.265Z,43.92
2018-09-29T06:43:09.735Z,43.85
2018-09-29T06:44:10.214Z,43.78
2018-09-29T06:45:10.683Z,43.72
2018-09-29T06:46:11.162Z,43.64
2018-09-29T06:47:11.631Z,43.60
2018-09-29T06:48:12.117Z,43.54
2018-09-29T06:49:12.582Z,43.49
2018-09-29T06:50:13.058Z,43.50
2018-09-29T06:51:13.527Z,43.51
2018-09-29T06:52:14.002Z,43.49
2018-09-29T06:53:14.476Z,43.51
2018-09-29T06:54:14.950Z,43.50
2018-09-29T06:55:15.425Z,43.50
2018-09-29T06:56:15.900Z,43.52
2018-09-29T06:57:16.378Z,43.54
2018-09-29T06:58:16.846Z,43.57
2018-09-29T06:59:17.320Z,43.61
2018-09-29T07:00:17.791Z,43.63
2018-09-29T07:01:18.267Z,43.65
2018-09-29T07:02:18.741Z,43.67
2018-09-29T07:03:19.213Z,43.67
2018-09-29T07:04:19.687Z,43.67
2018-09-29T07:05:20.161Z,43.70
2018-09-29T07:06:20.633Z,43.71
2018-09-29T07:07:21.106Z,43.70
2018-09-29T07:08:21.577Z,43.73
2018-09-29T07:09:22.059Z,43.70
2018-09-29T07:10:22.524Z,43.67
2018-09-29T07:11:22.994Z,43.65
2018-09-29T07:12:23.467Z,43.62
2018-09-29T07:13:23.938Z,43.59
2018-09-29T07:14:24.412Z,43.55
2018-09-29T07:15:24.881Z,43.51
2018-09-29T07:16:25.354Z,43.47
2018-09-29T07:17:25.864Z,43.47
2018-09-29T07:18:26.296Z,43.48
2018-09-29T07:19:26.767Z,43.54
2018-09-29T07:20:27.238Z,43.56
2018-09-29T07:21:27.747Z,43.57
2018-09-29T07:22:28.179Z,43.56
2018-09-29T07:23:28.650Z,43.57
2018-09-29T07:24:29.121Z,43.55
2018-09-29T07:25:29.642Z,43.50
2018-09-29T07:26:30.062Z,43.45
2018-09-29T07:27:30.531Z,43.42
2018-09-29T07:28:31.006Z,43.36
2018-09-29T07:29:31.476Z,43.27
2018-09-29T07:30:31.947Z,43.22
2018-09-29T07:31:32.483Z,43.15
2018-09-29T07:32:32.885Z,43.06
2018-09-29T07:33:33.356Z,42.95
2018-09-29T07:34:33.828Z,42.87
2018-09-29T07:35:34.297Z,42.79
2018-09-29T07:36:34.771Z,42.72
2018-09-29T07:37:35.240Z,42.64
2018-09-29T07:38:35.713Z,42.55
2018-09-29T07:39:36.183Z,42.48
2018-09-29T07:40:36.657Z,42.41
2018-09-29T07:41:37.129Z,42.36
2018-09-29T07:42:37.602Z,42.31
2018-09-29T07:43:38.076Z,42.27
2018-09-29T07:44:38.543Z,42.24
2018-09-29T07:45:39.019Z,42.19
2018-09-29T07:46:39.491Z,42.17
2018-09-29T07:47:39.963Z,42.15
2018-09-29T07:48:40.437Z,42.09
2018-09-29T07:49:40.909Z,42.04
2018-09-29T07:50:41.384Z,41.96
2018-09-29T07:51:41.858Z,41.84
2018-09-29T07:52:42.331Z,41.73
2018-09-29T07:53:42.807Z,41.63
2018-09-29T07:54:43.343Z,41.57
2018-09-29T07:55:43.761Z,41.56
2018-09-29T07:56:44.229Z,41.57
2018-09-29T07:57:44.724Z,41.56
2018-09-29T07:58:45.180Z,41.52
2018-09-29T07:59:45.655Z,41.50
2018-09-29T08:00:46.127Z,41.47
2018-09-29T08:01:46.603Z,41.45
2018-09-29T08:02:47.079Z,41.43
2018-09-29T08:03:47.554Z,41.43
2018-09-29T08:04:48.030Z,41.44
2018-09-29T08:05:48.503Z,41.42
2018-09-29T08:06:48.980Z,41.42
2018-09-29T08:07:49.451Z,41.41
2018-09-29T08:08:49.926Z,41.40
2018-09-29T08:09:50.402Z,41.41
2018-09-29T08:10:50.877Z,41.41
2018-09-29T08:11:51.350Z,41.43
2018-09-29T08:12:51.823Z,41.42
2018-09-29T08:13:52.298Z,41.43
2018-09-29T08:14:52.771Z,41.43
2018-09-29T08:15:53.243Z,41.42
2018-09-29T08:16:53.717Z,41.43
2018-09-29T08:17:54.191Z,41.38
2018-09-29T08:18:54.667Z,41.36
2018-09-29T08:19:55.138Z,41.35
2018-09-29T08:20:55.617Z,41.30
2018-09-29T08:21:56.084Z,41.29
2018-09-29T08:22:56.559Z,41.23
2018-09-29T08:23:57.029Z,41.19
2018-09-29T08:24:57.503Z,41.15
2018-09-29T08:25:57.979Z,41.13
2018-09-29T08:26:58.448Z,41.09
2018-09-29T08:27:58.921Z,41.08
2018-09-29T08:28:59.394Z,41.04
2018-09-29T08:29:59.867Z,41.01
2018-09-29T08:31:00.338Z,40.99
2018-09-29T08:32:00.809Z,40.96
2018-09-29T08:33:01.284Z,40.94
2018-09-29T08:34:01.756Z,40.90
2018-09-29T08:35:02.530Z,40.86
2018-09-29T08:36:02.697Z,40.80
2018-09-29T08:37:03.168Z,40.74
2018-09-29T08:38:03.640Z,40.67
2018-09-29T08:39:04.112Z,40.63
2018-09-29T08:40:04.583Z,40.56
2018-09-29T08:41:05.054Z,40.48
2018-09-29T08:42:05.525Z,40.48
2018-09-29T08:43:05.997Z,40.54
2018-09-29T08:44:06.467Z,40.53
2018-09-29T08:45:06.937Z,40.53
2018-09-29T08:46:07.410Z,40.55
2018-09-29T08:47:07.881Z,40.52
2018-09-29T08:48:08.351Z,40.56
2018-09-29T08:49:08.873Z,40.53
2018-09-29T08:50:09.294Z,40.48
2018-09-29T08:51:09.764Z,40.44
2018-09-29T08:52:10.238Z,40.42
2018-09-29T08:53:10.757Z,40.38
2018-09-29T08:54:11.180Z,40.34
2018-09-29T08:55:11.649Z,40.29
2018-09-29T08:56:12.124Z,40.25
2018-09-29T08:57:12.594Z,40.18
2018-09-29T08:58:13.065Z,40.12
2018-09-29T08:59:13.538Z,40.06
2018-09-29T09:00:14.010Z,39.99
2018-09-29T09:01:14.483Z,39.94
2018-09-29T09:02:14.957Z,39.90
2018-09-29T09:03:15.431Z,39.85
2018-09-29T09:04:15.903Z,39.79
2018-09-29T09:05:16.377Z,39.71
2018-09-29T09:06:16.881Z,39.63
2018-09-29T09:07:17.328Z,39.58
2018-09-29T09:08:17.798Z,39.49
2018-09-29T09:09:18.333Z,39.40
2018-09-29T09:10:18.746Z,39.28
2018-09-29T09:11:19.225Z,39.21
2018-09-29T09:12:19.695Z,39.20
2018-09-29T09:13:20.172Z,39.23
2018-09-29T09:14:20.647Z,39.24
2018-09-29T09:15:21.124Z,39.21
2018-09-29T09:16:21.599Z,39.19
2018-09-29T09:17:22.073Z,39.14
2018-09-29T09:18:22.548Z,39.13
2018-09-29T09:19:23.024Z,39.12
2018-09-29T09:20:23.501Z,39.12
2018-09-29T09:21:23.975Z,39.11
2018-09-29T09:22:24.452Z,39.11
2018-09-29T09:23:24.931Z,39.11
2018-09-29T09:24:25.402Z,39.11
2018-09-29T09:25:25.876Z,39.12
2018-09-29T09:26:26.353Z,39.12
2018-09-29T09:27:26.827Z,39.15
2018-09-29T09:28:27.301Z,39.17
2018-09-29T09:29:27.778Z,39.17
2018-09-29T09:30:28.255Z,39.18
2018-09-29T09:31:28.733Z,39.16
2018-09-29T09:32:29.204Z,39.17
2018-09-29T09:33:29.679Z,39.18
2018-09-29T09:35:30.630Z,39.17
2018-09-29T09:36:31.104Z,39.15
2018-09-29T09:37:31.579Z,39.15
2018-09-29T09:38:32.054Z,39.11
2018-09-29T09:39:32.532Z,39.10
2018-09-29T09:40:33.002Z,39.07
2018-09-29T09:41:33.477Z,39.07
2018-09-29T09:42:33.953Z,39.07
2018-09-29T09:43:34.487Z,39.02
2018-09-29T09:44:34.902Z,39.05
2018-09-29T09:45:35.375Z,39.05
2018-09-29T09:46:35.849Z,39.03
2018-09-29T09:47:36.326Z,39.01
2018-09-29T09:48:36.797Z,38.99
2018-09-29T09:49:37.551Z,38.97
2018-09-29T09:50:37.746Z,38.94
2018-09-29T09:51:38.220Z,38.91
2018-09-29T09:52:38.697Z,38.87
2018-09-29T09:53:39.166Z,38.85
2018-09-29T09:54:39.640Z,38.81
2018-09-29T09:55:40.113Z,38.77
2018-09-29T09:56:40.586Z,38.73
2018-09-29T09:57:41.061Z,38.70
2018-09-29T09:58:41.537Z,38.65
2018-09-29T09:59:42.010Z,38.63
2018-09-29T10:00:42.482Z,38.61
2018-09-29T10:01:42.955Z,38.57
2018-09-29T10:02:43.440Z,38.55
2018-09-29T10:03:43.910Z,38.51
2018-09-29T10:04:44.378Z,38.49
2018-09-29T10:05:44.848Z,38.47
2018-09-29T10:06:45.320Z,38.45
2018-09-29T10:07:45.794Z,38.43
2018-09-29T10:08:46.267Z,38.41
2018-09-29T10:09:46.738Z,38.38
2018-09-29T10:10:47.213Z,38.36
2018-09-29T10:11:47.689Z,38.34
2018-09-29T10:12:48.159Z,38.31
2018-09-29T10:13:48.630Z,38.28
2018-09-29T10:14:49.106Z,38.26
2018-09-29T10:15:49.580Z,38.24
2018-09-29T10:16:50.049Z,38.22
2018-09-29T10:17:50.524Z,38.19
2018-09-29T10:18:50.995Z,38.17
2018-09-29T10:19:51.469Z,38.15
2018-09-29T10:20:51.940Z,38.13
2018-09-29T10:21:52.411Z,38.10
2018-09-29T10:22:52.885Z,38.08
2018-09-29T10:23:53.362Z,38.06
2018-09-29T10:24:53.840Z,38.04
2018-09-29T10:25:54.303Z,38.01
2018-09-29T10:26:54.779Z,38.00
2018-09-29T10:27:55.250Z,37.97
2018-09-29T10:28:55.723Z,37.95
2018-09-29T10:29:56.195Z,37.92
2018-09-29T10:30:56.667Z,37.90
2018-09-29T10:31:57.138Z,37.88
2018-09-29T10:32:57.612Z,37.86
2018-09-29T10:33:58.085Z,37.84
2018-09-29T10:34:58.556Z,37.81
2018-09-29T10:35:59.029Z,37.80
2018-09-29T10:36:59.507Z,37.78
2018-09-29T10:37:59.976Z,37.76
2018-09-29T10:39:00.448Z,37.75
2018-09-29T10:40:00.920Z,37.73
2018-09-29T10:41:01.404Z,37.71
2018-09-29T10:42:01.865Z,37.69
2018-09-29T10:43:02.337Z,37.67
2018-09-29T10:44:02.870Z,37.65
2018-09-29T10:45:03.283Z,37.64
2018-09-29T10:46:03.754Z,37.63
2018-09-29T10:47:04.226Z,37.61
2018-09-29T10:48:04.699Z,37.60
2018-09-29T10:49:05.172Z,37.59
2018-09-29T10:50:05.644Z,37.57
2018-09-29T10:51:06.117Z,37.55
2018-09-29T10:52:06.590Z,37.54
2018-09-29T10:53:07.066Z,37.50
2018-09-29T10:54:07.535Z,37.48
2018-09-29T10:55:08.007Z,37.46
2018-09-29T10:56:08.482Z,37.45
2018-09-29T10:57:08.951Z,37.43
2018-09-29T10:58:09.426Z,37.41
2018-09-29T10:59:09.949Z,37.40
2018-09-29T11:00:10.369Z,37.38
2018-09-29T11:01:10.841Z,37.36
2018-09-29T11:02:11.317Z,37.35
2018-09-29T11:03:11.787Z,37.31
2018-09-29T11:04:12.258Z,37.29
2018-09-29T11:05:12.731Z,37.28
2018-09-29T11:06:13.204Z,37.27
2018-09-29T11:07:13.675Z,37.25
2018-09-29T11:08:14.148Z,37.24
2018-09-29T11:09:14.621Z,37.22
2018-09-29T11:10:15.094Z,37.20
2018-09-29T11:11:15.568Z,37.18
2018-09-29T11:12:16.040Z,37.15
2018-09-29T11:13:16.510Z,37.13
2018-09-29T11:14:16.993Z,37.12
2018-09-29T11:15:17.457Z,37.11
2018-09-29T11:16:17.980Z,37.09
2018-09-29T11:17:18.400Z,37.07
2018-09-29T11:18:18.875Z,37.06
2018-09-29T11:19:19.348Z,37.05
2018-09-29T11:20:19.818Z,37.05
2018-09-29T11:21:20.292Z,37.03
2018-09-29T11:22:20.769Z,37.01
2018-09-29T11:23:21.237Z,36.99
2018-09-29T11:24:21.710Z,36.98
2018-09-29T11:25:22.185Z,36.96
2018-09-29T11:26:22.656Z,36.94
2018-09-29T11:27:23.129Z,36.93
2018-09-29T11:28:23.602Z,36.92
2018-09-29T11:29:24.073Z,36.91
2018-09-29T11:30:24.545Z,36.90
2018-09-29T11:31:25.019Z,36.89
2018-09-29T11:32:25.491Z,36.89
2018-09-29T11:33:25.964Z,36.88
2018-09-29T11:34:26.640Z,36.88
2018-09-29T11:35:26.909Z,36.87
2018-09-29T11:36:27.385Z,36.86
2018-09-29T11:37:27.853Z,36.86
2018-09-29T11:38:28.328Z,36.85
2018-09-29T11:39:28.898Z,36.83
2018-09-29T11:40:29.306Z,36.82
2018-09-29T11:41:29.751Z,36.81
2018-09-29T11:42:30.218Z,36.80
2018-09-29T11:43:30.696Z,36.78
2018-09-29T11:44:31.164Z,36.79
2018-09-29T11:45:31.639Z,36.74
2018-09-29T11:46:32.114Z,36.73
2018-09-29T11:47:32.583Z,36.74
2018-09-29T11:48:33.056Z,36.72
2018-09-29T11:49:33.529Z,36.74
2018-09-29T11:50:34.001Z,36.74
2018-09-29T11:51:34.474Z,36.73
2018-09-29T11:52:34.949Z,36.72
2018-09-29T11:53:35.419Z,36.72
2018-09-29T11:54:35.896Z,36.71
2018-09-29T11:55:36.366Z,36.70
2018-09-29T11:56:36.843Z,36.69
2018-09-29T11:57:37.311Z,36.67
2018-09-29T11:58:37.786Z,36.68
2018-09-29T11:59:38.260Z,36.65
2018-09-29T12:00:38.732Z,36.64
2018-09-29T12:01:39.259Z,36.66
2018-09-29T12:02:39.679Z,36.66
2018-09-29T12:03:40.153Z,36.65
2018-09-29T12:04:40.625Z,36.64
2018-09-29T12:05:41.100Z,36.64
2018-09-29T12:06:41.572Z,36.64
2018-09-29T12:07:42.169Z,36.63
2018-09-29T12:08:42.518Z,36.60
2018-09-29T12:09:42.991Z,36.60
2018-09-29T12:10:43.465Z,36.61
2018-09-29T12:11:43.943Z,36.61
2018-09-29T12:12:44.411Z,36.61
2018-09-29T12:13:44.930Z,36.61
2018-09-29T12:14:45.359Z,36.62
2018-09-29T12:15:45.831Z,36.62
2018-09-29T12:16:46.303Z,36.63
2018-09-29T12:17:46.776Z,36.63
2018-09-29T12:18:47.250Z,36.63
2018-09-29T12:19:47.725Z,36.63
2018-09-29T12:20:48.199Z,36.62
2018-09-29T12:21:48.673Z,36.62
2018-09-29T12:22:49.149Z,36.65
2018-09-29T12:23:49.617Z,36.65
2018-09-29T12:24:50.092Z,36.66
2018-09-29T12:25:50.564Z,36.66
2018-09-29T12:26:51.036Z,36.66
2018-09-29T12:27:51.512Z,36.64
2018-09-29T12:28:51.986Z,36.63
2018-09-29T12:29:52.519Z,36.64
2018-09-29T12:30:52.936Z,36.64
2018-09-29T12:31:53.406Z,36.60
2018-09-29T12:32:53.884Z,36.62
2018-09-29T12:33:54.355Z,36.62
2018-09-29T12:34:54.827Z,36.60
2018-09-29T12:35:55.300Z,36.60
2018-09-29T12:36:55.829Z,36.60
2018-09-29T12:37:56.246Z,36.62
2018-09-29T12:38:56.722Z,36.63
2018-09-29T12:39:57.194Z,36.63
2018-09-29T12:40:57.668Z,36.64
2018-09-29T12:41:58.141Z,36.66
2018-09-29T12:42:58.617Z,36.66
2018-09-29T12:43:59.090Z,36.65
2018-09-29T12:44:59.644Z,36.65
2018-09-29T12:46:00.036Z,36.67
2018-09-29T12:47:00.516Z,36.65
2018-09-29T12:48:00.984Z,36.66
2018-09-29T12:49:01.459Z,36.67
2018-09-29T12:50:01.973Z,36.66
2018-09-29T12:51:02.407Z,36.66
2018-09-29T12:52:02.963Z,36.67
2018-09-29T12:53:03.355Z,36.68
2018-09-29T12:54:03.829Z,36.71
2018-09-29T12:55:04.303Z,36.71
2018-09-29T12:56:04.776Z,36.70
2018-09-29T12:57:05.252Z,36.68
2018-09-29T12:58:05.724Z,36.67
2018-09-29T12:59:06.199Z,36.66
2018-09-29T13:00:06.673Z,36.65